Time;durP1;ratioP1;P1;durP2;ratioP2;P2;SDS_P1;SDS_P2;PMS_P1;PMS_P2;Temp;Humidity;BMP_temperature;BMP_pressure;BME280_temperature;BME280_humidity;BME280_pressure;Samples;Min_cycle;Max_cycle;Signal;HPM_P1;HPM_P2
2022/03/20 00:01:07;;;;;;;23.13;11.15;;;;;;;5.44;74.46;103663.09;5071859;28;20033;-66
2022/03/20 00:03:33;;;;;;;19.95;11.63;;;;;;;5.40;74.60;103667.25;5058256;28;20036;-66
2022/03/20 00:05:58;;;;;;;26.13;13.27;;;;;;;5.47;74.34;103659.75;5038886;28;20036;-65
2022/03/20 00:08:25;;;;;;;30.38;12.77;;;;;;;5.54;73.83;103660.13;5071340;28;20400;-65
2022/03/20 00:10:52;;;;;;;20.85;11.80;;;;;;;5.55;73.67;103659.34;5051887;28;20373;-65
2022/03/20 00:13:20;;;;;;;30.65;14.85;;;;;;;5.49;73.83;103659.00;5067248;28;20388;-66
2022/03/20 00:15:48;;;;;;;23.45;11.20;;;;;;;5.49;73.88;103663.31;5070838;28;20028;-65
2022/03/20 00:18:15;;;;;;;21.48;12.23;;;;;;;5.48;73.87;103665.03;5068505;28;20495;-65
2022/03/20 00:20:44;;;;;;;44.15;13.25;;;;;;;5.40;74.17;103656.81;5053255;28;20044;-65
2022/03/20 00:23:11;;;;;;;32.72;13.05;;;;;;;5.33;74.47;103672.06;5073012;28;20040;-65
2022/03/20 00:25:38;;;;;;;34.30;12.85;;;;;;;5.25;74.62;103660.34;5073114;28;20041;-67
2022/03/20 00:28:05;;;;;;;19.27;10.98;;;;;;;5.19;74.48;103664.44;5072136;28;20392;-65
2022/03/20 00:30:31;;;;;;;27.52;13.40;;;;;;;5.16;74.38;103672.09;5073125;28;20095;-66
2022/03/20 00:32:56;;;;;;;28.17;12.82;;;;;;;5.08;74.61;103665.56;5055104;28;20412;-65
2022/03/20 00:35:22;;;;;;;24.85;14.00;;;;;;;5.01;74.91;103663.44;5073201;28;20090;-65
2022/03/20 00:37:47;;;;;;;26.20;14.52;;;;;;;5.05;74.88;103661.91;5073299;28;20028;-65
2022/03/20 00:40:13;;;;;;;25.08;14.05;;;;;;;5.09;74.47;103663.84;5073032;28;20037;-65
2022/03/20 00:42:38;;;;;;;26.40;12.43;;;;;;;5.12;73.86;103664.03;5073093;28;20041;-66
2022/03/20 00:45:04;;;;;;;24.85;12.35;;;;;;;5.19;73.76;103659.22;5072998;28;20039;-64
2022/03/20 00:47:30;;;;;;;18.83;10.15;;;;;;;5.19;73.52;103656.59;5068216;28;20037;-65
2022/03/20 00:49:55;;;;;;;32.90;12.07;;;;;;;5.25;73.30;103660.34;5066677;28;20039;-64
2022/03/20 00:52:21;;;;;;;20.13;10.63;;;;;;;5.22;73.22;103654.97;5072620;28;20430;-64
2022/03/20 00:54:46;;;;;;;15.85;9.60;;;;;;;5.18;73.57;103646.06;5072950;28;20052;-64
2022/03/20 00:57:12;;;;;;;20.38;10.65;;;;;;;5.29;73.24;103641.44;5072581;28;20069;-65
2022/03/20 00:59:37;;;;;;;20.25;12.00;;;;;;;5.16;73.27;103645.13;5071346;28;20036;-65
2022/03/20 01:02:04;;;;;;;26.52;12.48;;;;;;;5.16;72.97;103650.34;5068355;28;20037;-65
2022/03/20 01:04:30;;;;;;;22.73;12.15;;;;;;;5.12;73.36;103645.78;5062102;28;20396;-65
2022/03/20 01:07:00;;;;;;;28.63;12.20;;;;;;;5.07;73.92;103653.34;5074900;28;20040;-65
2022/03/20 01:09:31;;;;;;;29.35;12.93;;;;;;;5.09;73.56;103656.03;5092172;28;20036;-65
2022/03/20 01:11:58;;;;;;;25.38;11.23;;;;;;;5.08;73.35;103649.03;5075733;28;20035;-64
2022/03/20 01:14:25;;;;;;;25.23;12.18;;;;;;;5.17;73.15;103655.63;5075132;28;20034;-65
2022/03/20 01:16:51;;;;;;;33.97;13.68;;;;;;;5.13;72.88;103650.16;5075524;28;20051;-65
2022/03/20 01:19:17;;;;;;;30.08;12.98;;;;;;;4.93;73.37;103644.78;5058848;28;20486;-65
2022/03/20 01:21:42;;;;;;;26.77;13.48;;;;;;;4.85;73.70;103653.91;5076557;28;20072;-65
2022/03/20 01:24:08;;;;;;;20.30;11.88;;;;;;;4.95;73.46;103647.50;5076591;28;20037;-65
2022/03/20 01:26:35;;;;;;;19.27;11.52;;;;;;;5.00;73.38;103646.03;5079156;28;20060;-64
2022/03/20 01:29:02;;;;;;;19.67;11.45;;;;;;;5.12;73.28;103645.78;5072096;28;20041;-65
2022/03/20 01:31:28;;;;;;;22.05;12.35;;;;;;;5.18;72.75;103649.56;5071748;28;20119;-65
2022/03/20 01:33:54;;;;;;;29.30;14.65;;;;;;;5.02;72.76;103639.16;5058339;28;20120;-65
2022/03/20 01:36:21;;;;;;;51.17;14.18;;;;;;;4.95;72.89;103639.69;5074779;28;20044;-65
2022/03/20 01:38:46;;;;;;;33.50;12.38;;;;;;;4.89;73.14;103634.13;5074993;28;20029;-64
2022/03/20 01:41:12;;;;;;;61.30;14.45;;;;;;;4.90;72.69;103631.59;5076195;28;20033;-65
2022/03/20 01:43:38;;;;;;;43.15;12.45;;;;;;;4.86;72.92;103629.63;5074833;28;20062;-65
2022/03/20 01:46:04;;;;;;;37.05;13.48;;;;;;;4.69;73.39;103623.53;5076524;28;20032;-65
2022/03/20 01:48:30;;;;;;;28.10;11.60;;;;;;;4.73;73.47;103631.50;5075594;28;20037;-65
2022/03/20 01:50:55;;;;;;;18.67;10.77;;;;;;;4.81;73.27;103630.22;5075960;28;20036;-65
2022/03/20 01:53:21;;;;;;;32.00;11.63;;;;;;;4.77;73.28;103628.25;5076185;28;20479;-65
2022/03/20 01:55:47;;;;;;;68.28;17.35;;;;;;;4.77;73.29;103625.66;5074773;28;20028;-65
2022/03/20 01:58:17;;;;;;;29.27;13.77;;;;;;;4.81;73.39;103625.00;5074459;28;20115;-65
2022/03/20 02:00:43;;;;;;;40.25;13.43;;;;;;;4.77;73.49;103621.34;5076063;28;20041;-65
2022/03/20 02:03:10;;;;;;;24.33;13.55;;;;;;;4.82;73.26;103632.00;5075434;28;20048;-64
2022/03/20 02:05:35;;;;;;;32.83;14.60;;;;;;;4.82;72.97;103622.47;5075702;28;20041;-65
2022/03/20 02:08:02;;;;;;;22.08;11.93;;;;;;;4.88;72.80;103622.81;5075831;28;20453;-64
2022/03/20 02:10:35;;;;;;;17.92;10.80;;;;;;;4.99;72.58;103618.19;5075293;28;20032;-66
2022/03/20 02:13:00;;;;;;;;;;;;;;;5.10;71.98;103616.09;5074551;28;20094;-65
2022/03/20 02:15:26;;;;;;;20.50;11.57;;;;;;;5.12;71.91;103612.78;5074531;28;19912;-64
2022/03/20 02:17:52;;;;;;;16.05;9.82;;;;;;;5.18;71.55;103610.47;5075470;28;20037;-65
2022/03/20 02:20:19;;;;;;;22.58;13.35;;;;;;;5.13;71.19;103617.16;5070787;28;20496;-65
2022/03/20 02:22:45;;;;;;;86.80;15.70;;;;;;;5.04;71.42;103619.31;5054218;28;20029;-65
2022/03/20 02:25:14;;;;;;;43.40;14.45;;;;;;;4.84;71.88;103612.16;5056819;28;20521;-64
2022/03/20 02:27:39;;;;;;;95.72;15.90;;;;;;;4.63;72.36;103614.50;5075469;28;20036;-64
2022/03/20 02:30:12;;;;;;;57.25;14.52;;;;;;;4.49;72.67;103612.84;5075400;28;20032;-64
2022/03/20 02:32:42;;;;;;;44.42;14.02;;;;;;;4.37;73.13;103620.88;5075234;28;20060;-65
2022/03/20 02:35:13;;;;;;;45.28;14.00;;;;;;;4.25;73.61;103620.19;5075467;28;20037;-64
2022/03/20 02:37:41;;;;;;;36.75;13.77;;;;;;;4.30;73.25;103622.22;5075156;28;20468;-65
2022/03/20 02:40:07;;;;;;;22.52;9.70;;;;;;;4.35;73.40;103617.28;5073674;28;20194;-65
2022/03/20 02:42:35;;;;;;;36.40;13.50;;;;;;;4.43;73.22;103618.63;5074793;28;20162;-64
2022/03/20 02:45:05;;;;;;;72.10;16.15;;;;;;;4.44;73.08;103617.81;5073823;28;20032;-65
2022/03/20 02:47:32;;;;;;;38.95;13.38;;;;;;;4.43;73.19;103616.91;5073727;28;20035;-64
2022/03/20 02:50:18;;;;;;;27.58;12.45;;;;;;;4.39;73.30;103619.25;5073236;28;20029;-64
2022/03/20 02:52:58;;;;;;;29.73;12.50;;;;;;;4.48;73.42;103611.06;5073697;28;20372;-65
2022/03/20 02:55:37;;;;;;;36.20;12.93;;;;;;;4.60;73.18;103612.63;5074642;28;20098;-65
2022/03/20 02:58:10;;;;;;;52.53;14.00;;;;;;;4.65;72.82;103612.84;5074654;28;20043;-64
2022/03/20 03:00:36;;;;;;;46.63;13.30;;;;;;;4.46;73.44;103613.56;5074849;28;20033;-65
2022/03/20 03:03:04;;;;;;;47.22;14.13;;;;;;;4.44;73.41;103617.81;5073335;28;20261;-64
2022/03/20 03:05:31;;;;;;;21.90;11.95;;;;;;;4.49;73.34;103613.72;5069852;28;20040;-65
2022/03/20 03:10:56;;;;;;;72.13;16.33;;;;;;;4.61;72.63;103611.78;5054489;28;20032;-65
2022/03/20 03:13:34;;;;;;;25.55;13.27;;;;;;;4.63;72.48;103614.50;5074387;28;20032;-64
2022/03/20 03:16:03;;;;;;;22.33;12.30;;;;;;;4.67;72.21;103616.47;5074576;28;20029;-64
2022/03/20 03:18:28;;;;;;;23.00;12.70;;;;;;;4.72;71.98;103608.88;5072799;28;20021;-65
2022/03/20 03:20:54;;;;;;;18.58;11.57;;;;;;;4.70;71.63;103606.19;5074820;28;20043;-64
2022/03/20 03:23:20;;;;;;;27.30;12.85;;;;;;;4.72;71.66;103598.47;5074385;28;20435;-65
2022/03/20 03:25:46;;;;;;;28.30;12.38;;;;;;;4.64;71.80;103595.44;5072823;28;20032;-64
2022/03/20 03:28:12;;;;;;;39.28;12.32;;;;;;;4.59;71.78;103603.03;5038262;28;20037;-64
2022/03/20 03:30:43;;;;;;;70.22;15.50;;;;;;;4.39;72.09;103607.13;5061664;28;20473;-64
2022/03/20 03:33:10;;;;;;;32.50;13.90;;;;;;;4.42;72.77;103598.56;5074375;28;20024;-64
2022/03/20 03:35:51;;;;;;;38.35;14.13;;;;;;;4.43;72.14;103600.41;5072785;28;20131;-64
2022/03/20 03:38:19;;;;;;;30.83;12.50;;;;;;;4.45;72.02;103598.75;5072320;28;20039;-65
2022/03/20 03:40:47;;;;;;;47.33;13.48;;;;;;;4.47;72.29;103604.03;5071463;28;20090;-65
2022/03/20 03:43:17;;;;;;;27.70;12.85;;;;;;;4.51;72.10;103604.31;5056100;28;20032;-65
2022/03/20 03:45:43;;;;;;;44.30;14.25;;;;;;;4.58;71.97;103602.91;5072634;28;20082;-64
2022/03/20 03:48:11;;;;;;;45.95;14.82;;;;;;;4.55;71.86;103608.88;5073756;28;20103;-64
2022/03/20 03:50:38;;;;;;;53.95;13.68;;;;;;;4.38;72.09;103607.94;5072223;28;20128;-66
2022/03/20 03:53:05;;;;;;;55.38;15.05;;;;;;;4.22;72.56;103604.41;5072722;28;20439;-65
2022/03/20 03:55:32;;;;;;;60.35;13.98;;;;;;;4.17;72.26;103607.63;5073915;28;20511;-65
2022/03/20 03:57:59;;;;;;;48.17;14.98;;;;;;;4.10;72.43;103605.50;5068980;28;20037;-65
2022/03/20 04:00:26;;;;;;;64.20;13.88;;;;;;;4.09;72.47;103610.63;5086243;28;20435;-65
2022/03/20 04:02:51;;;;;;;56.72;13.15;;;;;;;4.02;72.90;103604.16;5053601;28;20029;-65
2022/03/20 04:05:17;;;;;;;63.60;14.07;;;;;;;3.92;73.11;103601.88;5064019;28;20041;-65
2022/03/20 04:07:45;;;;;;;23.77;12.13;;;;;;;3.97;73.14;103605.63;5072451;28;20037;-65
2022/03/20 04:10:10;;;;;;;97.85;16.27;;;;;;;3.95;73.01;103604.66;5072264;28;20483;-65
2022/03/20 04:12:38;;;;;;;24.75;11.90;;;;;;;4.02;72.82;103601.56;5073292;28;20051;-65
2022/03/20 04:15:09;;;;;;;29.95;12.57;;;;;;;4.00;72.61;103613.63;5073877;28;20033;-64
2022/03/20 04:17:35;;;;;;;63.90;15.18;;;;;;;3.98;72.45;103601.31;5056981;28;20056;-64
2022/03/20 04:20:02;;;;;;;32.10;13.15;;;;;;;3.95;72.76;103597.75;5073241;28;20498;-64
2022/03/20 04:22:29;;;;;;;21.15;12.60;;;;;;;4.05;72.60;103601.75;5052424;28;20037;-65
2022/03/20 04:24:55;;;;;;;22.73;11.20;;;;;;;4.13;72.41;103610.88;5052281;28;20029;-64
2022/03/20 04:27:21;;;;;;;35.75;13.75;;;;;;;4.15;72.46;103611.00;5052314;28;20036;-64
2022/03/20 04:29:46;;;;;;;23.45;11.50;;;;;;;4.11;71.94;103609.91;5065361;28;20396;-65
2022/03/20 04:32:13;;;;;;;40.40;14.70;;;;;;;4.15;71.80;103609.28;5053974;28;20036;-65
2022/03/20 04:34:40;;;;;;;24.55;13.70;;;;;;;4.14;71.73;103607.47;5071671;28;20497;-64
2022/03/20 04:37:06;;;;;;;100.40;16.60;;;;;;;4.16;71.89;103608.47;5072182;28;20074;-64
2022/03/20 04:39:34;;;;;;;19.85;10.95;;;;;;;4.13;71.78;103605.69;5072410;28;20090;-64
2022/03/20 04:42:00;;;;;;;19.02;10.85;;;;;;;4.19;71.70;103616.44;5076122;28;20037;-64
2022/03/20 04:44:26;;;;;;;31.13;12.57;;;;;;;4.23;71.48;103614.00;5059426;28;20120;-64
2022/03/20 04:46:52;;;;;;;61.05;14.43;;;;;;;4.08;71.84;103617.53;5076961;28;20170;-67
2022/03/20 05:00:14;;;;;;;100.72;15.60;;;;;;;3.91;71.87;103619.19;5077163;28;20086;-66
2022/03/20 05:02:40;;;;;;;23.65;12.18;;;;;;;4.03;71.67;103619.00;5077155;28;20036;-65
2022/03/20 05:05:06;;;;;;;19.38;11.85;;;;;;;4.08;71.02;103621.84;5076802;28;20384;-66
2022/03/20 05:07:33;;;;;;;25.65;11.77;;;;;;;4.10;70.91;103617.63;5058968;28;20094;-66
2022/03/20 05:15:29;;;;;;;26.10;12.52;;;;;;;3.90;71.08;103621.69;5076798;28;20040;-67
2022/03/20 05:17:55;;;;;;;30.95;12.93;;;;;;;3.98;70.94;103620.41;5076997;28;20040;-66
2022/03/20 05:20:23;;;;;;;57.58;15.88;;;;;;;4.05;70.79;103609.56;5074982;28;20111;-64
2022/03/20 05:22:49;;;;;;;71.72;16.30;;;;;;;4.04;70.56;103619.88;5075425;28;20468;-64
2022/03/20 05:25:16;;;;;;;62.13;13.75;;;;;;;4.09;70.64;103629.72;5092799;28;20035;-64
2022/03/20 05:27:41;;;;;;;21.08;11.35;;;;;;;4.07;70.54;103631.38;5076051;28;20399;-66
2022/03/20 05:30:07;;;;;;;18.83;10.73;;;;;;;4.15;70.48;103624.91;5076650;28;20461;-64
2022/03/20 05:32:35;;;;;;;21.40;11.77;;;;;;;4.26;70.29;103628.06;5074821;28;20040;-64
2022/03/20 05:35:05;;;;;;;34.63;12.82;;;;;;;4.29;69.75;103633.47;5075088;28;20044;-64
2022/03/20 05:37:31;;;;;;;26.23;13.32;;;;;;;4.24;69.89;103631.44;5083968;28;20054;-65
2022/03/20 05:39:57;;;;;;;35.00;11.20;;;;;;;4.27;70.12;103629.91;5058556;28;20041;-64
2022/03/20 05:42:23;;;;;;;29.13;13.85;;;;;;;4.26;70.13;103633.28;5076603;28;20392;-64
2022/03/20 05:44:48;;;;;;;22.23;12.32;;;;;;;4.32;69.57;103636.25;5075970;28;20037;-64
2022/03/20 05:47:13;;;;;;;28.85;13.45;;;;;;;4.40;69.38;103636.66;5076190;28;20469;-65
2022/03/20 05:49:39;;;;;;;29.50;13.55;;;;;;;4.39;69.46;103643.59;5075871;28;20460;-64
2022/03/20 05:52:06;;;;;;;27.55;14.25;;;;;;;4.39;69.32;103641.00;5075144;28;20124;-64
2022/03/20 05:54:32;;;;;;;59.95;15.65;;;;;;;4.45;69.47;103643.91;5074594;28;20056;-64
2022/03/20 05:59:42;;;;;;;34.22;15.88;;;;;;;4.17;69.65;103638.88;5068333;28;20044;-65
2022/03/20 06:02:09;;;;;;;44.42;15.60;;;;;;;4.24;69.58;103647.94;5057207;28;20024;-65
2022/03/20 06:04:35;;;;;;;45.17;15.07;;;;;;;4.33;69.47;103647.53;5074734;28;20036;-65
2022/03/20 06:07:01;;;;;;;46.50;16.33;;;;;;;4.20;69.71;103659.88;5071374;28;20025;-64
2022/03/20 06:09:27;;;;;;;44.05;16.38;;;;;;;4.24;69.62;103663.56;5052466;28;20443;-66
2022/03/20 06:11:53;;;;;;;50.85;14.15;;;;;;;4.22;69.49;103662.56;5036220;28;20030;-64
2022/03/20 06:14:19;;;;;;;31.50;14.25;;;;;;;4.20;69.38;103664.19;5066304;28;20032;-64
2022/03/20 06:16:48;;;;;;;51.42;15.20;;;;;;;4.22;69.35;103664.25;5074292;28;20499;-64
2022/03/20 06:19:15;;;;;;;36.08;15.95;;;;;;;4.27;69.44;103670.63;5075894;28;20036;-64
2022/03/20 06:21:42;;;;;;;32.20;16.80;;;;;;;4.44;69.04;103664.66;5074203;28;20033;-64
2022/03/20 06:24:08;;;;;;;19.73;12.80;;;;;;;4.63;68.55;103675.31;5075447;28;20434;-65
2022/03/20 06:26:34;;;;;;;24.80;14.18;;;;;;;4.83;68.21;103665.97;5075470;28;20032;-65
2022/03/20 06:29:00;;;;;;;28.38;15.27;;;;;;;5.04;67.36;103671.44;5073524;28;20043;-65
2022/03/20 06:31:26;;;;;;;49.38;22.15;;;;;;;5.17;66.88;103673.88;5073915;28;20036;-64
2022/03/20 06:33:51;;;;;;;53.42;24.73;;;;;;;5.32;66.24;103673.78;5075374;28;20039;-65
2022/03/20 06:36:17;;;;;;;44.10;22.63;;;;;;;5.52;65.70;103667.00;5074955;28;20040;-65
2022/03/20 06:38:42;;;;;;;41.53;19.77;;;;;;;5.64;64.88;103672.84;5075048;28;20032;-65
2022/03/20 06:41:08;;;;;;;38.72;19.73;;;;;;;5.67;64.69;103678.22;5073789;28;20029;-65
2022/03/20 06:43:36;;;;;;;29.85;16.85;;;;;;;5.63;64.52;103678.88;5074096;28;20036;-65
2022/03/20 06:46:03;;;;;;;29.05;17.45;;;;;;;5.51;65.02;103680.84;5075048;28;20048;-65
2022/03/20 06:48:29;;;;;;;28.15;15.63;;;;;;;5.44;65.12;103686.56;5057230;28;20037;-66
2022/03/20 06:50:54;;;;;;;26.13;14.90;;;;;;;5.37;65.29;103689.66;5074740;28;20503;-65
2022/03/20 06:53:20;;;;;;;22.70;12.93;;;;;;;5.31;65.27;103684.16;5074710;28;20575;-65
2022/03/20 06:55:45;;;;;;;22.92;13.57;;;;;;;5.32;65.47;103685.94;5073580;28;20035;-66
2022/03/20 06:58:13;;;;;;;25.70;15.20;;;;;;;5.42;65.07;103696.91;5074522;28;20590;-65
2022/03/20 07:00:40;;;;;;;29.08;15.35;;;;;;;5.38;65.21;103699.28;5073524;28;20060;-65
2022/03/20 07:03:06;;;;;;;27.67;15.50;;;;;;;5.38;65.16;103700.16;5073640;28;20458;-65
2022/03/20 07:05:33;;;;;;;30.15;17.80;;;;;;;5.46;65.09;103703.19;5074412;28;20039;-66
2022/03/20 07:08:03;;;;;;;29.08;16.98;;;;;;;5.56;64.82;103708.06;5073443;28;20063;-65
2022/03/20 07:10:29;;;;;;;26.92;15.23;;;;;;;5.68;64.33;103700.88;5073142;28;20028;-66
2022/03/20 07:15:40;;;;;;;27.60;16.60;;;;;;;5.68;64.01;103700.88;5073686;28;20456;-66
2022/03/20 07:18:06;;;;;;;25.02;15.75;;;;;;;5.47;64.34;103699.78;5052987;28;20029;-65
2022/03/20 07:20:32;;;;;;;21.88;13.82;;;;;;;5.37;64.58;103702.69;5036546;28;20499;-65
2022/03/20 07:23:00;;;;;;;26.05;15.70;;;;;;;5.13;65.00;103697.09;5054270;28;20037;-64
2022/03/20 07:30:56;;;;;;;26.38;14.93;;;;;;;5.31;64.63;103695.47;5073353;28;20043;-65
2022/03/20 07:33:25;;;;;;;25.52;14.85;;;;;;;5.30;64.88;103696.25;5072161;28;20039;-65
2022/03/20 07:35:51;;;;;;;26.80;16.85;;;;;;;5.40;64.66;103687.22;5073951;28;20048;-64
2022/03/20 07:38:16;;;;;;;27.48;16.80;;;;;;;5.41;64.50;103695.13;5055910;28;20032;-65
2022/03/20 07:40:41;;;;;;;26.25;15.90;;;;;;;5.54;64.22;103690.53;5056177;28;20032;-64
2022/03/20 07:43:07;;;;;;;29.80;17.50;;;;;;;5.60;64.13;103689.16;5074019;28;20464;-65
2022/03/20 07:45:34;;;;;;;34.20;19.08;;;;;;;5.60;64.17;103696.97;5073304;28;20068;-64
2022/03/20 07:47:59;;;;;;;31.65;18.02;;;;;;;5.73;63.73;103695.88;5072542;28;20036;-65
2022/03/20 07:50:25;;;;;;;29.60;17.42;;;;;;;5.86;63.45;103690.47;5072849;28;20032;-65
2022/03/20 07:52:50;;;;;;;28.85;16.27;;;;;;;5.99;63.14;103689.41;5071289;28;20036;-64
2022/03/20 07:55:17;;;;;;;29.83;16.75;;;;;;;6.08;62.77;103681.13;5072230;28;20053;-64
2022/03/20 07:57:42;;;;;;;27.70;16.67;;;;;;;6.31;62.32;103688.38;5072171;28;20124;-65
2022/03/20 08:00:09;;;;;;;23.92;16.08;;;;;;;6.39;61.70;103687.03;5072590;28;20116;-65
2022/03/20 08:02:34;;;;;;;31.02;17.98;;;;;;;6.42;61.28;103691.50;5055744;28;20028;-64
2022/03/20 08:05:01;;;;;;;34.70;18.90;;;;;;;6.44;61.19;103702.94;5073467;28;20269;-65
2022/03/20 08:07:26;;;;;;;28.73;17.00;;;;;;;6.31;61.70;103705.78;5054565;28;20467;-65
2022/03/20 08:09:52;;;;;;;32.00;18.23;;;;;;;6.35;61.70;103711.22;5072624;28;20071;-66
2022/03/20 08:12:17;;;;;;;35.03;19.98;;;;;;;6.37;61.48;103696.50;5072493;28;20062;-64
2022/03/20 08:14:44;;;;;;;27.83;17.20;;;;;;;6.34;61.89;103695.44;5072422;28;20029;-66
2022/03/20 08:17:10;;;;;;;34.83;18.83;;;;;;;6.46;61.22;103684.69;5071353;28;20032;-65
2022/03/20 08:19:36;;;;;;;32.58;18.92;;;;;;;6.45;61.39;103691.66;5072465;28;20033;-65
2022/03/20 08:22:05;;;;;;;37.20;21.27;;;;;;;6.56;61.19;103697.41;5072734;28;20036;-65
2022/03/20 08:24:30;;;;;;;30.75;17.88;;;;;;;6.69;61.01;103704.97;5055656;28;20028;-65
2022/03/20 08:26:57;;;;;;;28.63;16.60;;;;;;;6.76;60.42;103704.44;5070432;28;20033;-66
2022/03/20 08:29:23;;;;;;;24.48;15.65;;;;;;;6.88;60.07;103697.19;5074092;28;20392;-66
2022/03/20 08:31:48;;;;;;;30.23;17.73;;;;;;;6.97;59.59;103701.94;5083751;28;20043;-66
2022/03/20 08:34:15;;;;;;;29.95;17.20;;;;;;;7.12;59.25;103699.13;5079901;28;20039;-65
2022/03/20 08:36:42;;;;;;;30.65;17.83;;;;;;;7.22;59.06;103703.97;5072317;28;20131;-65
2022/03/20 08:39:08;;;;;;;28.27;16.48;;;;;;;7.33;58.81;103702.69;5078182;28;20040;-65
2022/03/20 08:41:34;;;;;;;27.98;16.95;;;;;;;7.45;58.49;103697.13;5072438;28;20041;-65
2022/03/20 08:44:00;;;;;;;26.25;16.02;;;;;;;7.51;57.86;103699.13;5074105;28;20043;-65
2022/03/20 08:46:26;;;;;;;29.25;17.55;;;;;;;7.59;57.63;103701.25;5070567;28;20098;-67
2022/03/20 08:48:51;;;;;;;27.25;16.75;;;;;;;7.66;57.41;103702.41;5072318;28;20036;-65
2022/03/20 08:51:17;;;;;;;25.45;16.50;;;;;;;7.64;56.85;103704.94;5072329;28;20059;-65
2022/03/20 08:53:43;;;;;;;27.73;15.95;;;;;;;7.73;56.81;103706.16;5055286;28;20053;-65
2022/03/20 08:56:08;;;;;;;22.35;14.68;;;;;;;7.81;56.43;103699.53;5073228;28;20077;-65
2022/03/20 08:58:34;;;;;;;25.17;14.80;;;;;;;7.92;56.14;103697.38;5073089;28;20071;-65
2022/03/20 09:00:59;;;;;;;30.00;19.50;;;;;;;8.04;55.81;103698.78;5071473;28;20495;-65
2022/03/20 09:03:25;;;;;;;27.85;16.95;;;;;;;8.15;55.28;103694.00;5072995;28;20040;-64
2022/03/20 09:05:50;;;;;;;28.45;16.45;;;;;;;8.20;54.75;103691.56;5072122;28;20043;-66
2022/03/20 09:08:16;;;;;;;22.55;14.45;;;;;;;8.28;54.49;103700.63;5071094;28;20489;-65
2022/03/20 09:10:41;;;;;;;22.30;14.70;;;;;;;8.36;54.38;103692.22;5070843;28;20029;-64
2022/03/20 09:13:07;;;;;;;24.52;15.07;;;;;;;8.49;53.97;103695.38;5072979;28;20032;-65
2022/03/20 09:15:32;;;;;;;24.38;14.60;;;;;;;8.56;53.54;103682.56;5072504;28;20170;-66
2022/03/20 09:20:44;;;;;;;23.70;14.57;;;;;;;8.78;53.01;103680.81;5072255;28;20113;-65
2022/03/20 09:23:12;;;;;;;23.60;15.48;;;;;;;8.88;52.34;103683.81;5069637;28;20037;-66
2022/03/20 09:25:38;;;;;;;21.60;14.10;;;;;;;9.02;51.25;103686.97;5072560;28;20032;-65
2022/03/20 09:28:06;;;;;;;23.15;14.25;;;;;;;9.11;50.97;103682.06;5074214;28;20028;-64
2022/03/20 09:30:32;;;;;;;20.75;12.80;;;;;;;9.22;50.83;103674.59;5074988;28;20028;-66
2022/03/20 09:32:57;;;;;;;22.40;15.05;;;;;;;9.11;49.52;103666.31;5076517;28;20483;-66
2022/03/20 09:35:23;;;;;;;21.88;13.50;;;;;;;9.25;50.12;103676.41;5076389;28;20035;-65
2022/03/20 09:37:48;;;;;;;18.33;12.55;;;;;;;9.41;49.80;103667.34;5076183;28;20046;-61
2022/03/20 09:40:14;;;;;;;20.85;12.98;;;;;;;9.53;49.60;103666.03;5075009;28;20024;-61
2022/03/20 09:42:41;;;;;;;17.45;12.38;;;;;;;9.64;47.77;103674.31;5074936;28;20086;-62
2022/03/20 09:45:09;;;;;;;19.80;11.05;;;;;;;9.78;47.65;103669.53;5074344;28;20037;-61
2022/03/20 09:47:37;;;;;;;17.63;11.60;;;;;;;9.86;47.30;103668.94;5076289;28;20464;-60
2022/03/20 09:50:03;;;;;;;17.02;11.13;;;;;;;9.97;46.88;103671.91;5075179;28;20035;-61
2022/03/20 09:52:28;;;;;;;16.90;11.45;;;;;;;10.00;45.57;103665.88;5058156;28;20124;-62
2022/03/20 09:54:54;;;;;;;15.50;10.70;;;;;;;10.09;45.05;103663.53;5075881;28;20139;-61
2022/03/20 09:57:19;;;;;;;17.63;11.25;;;;;;;10.14;44.47;103664.59;5075852;28;20486;-61
2022/03/20 09:59:44;;;;;;;15.32;9.88;;;;;;;10.24;43.59;103661.41;5075793;28;20097;-60
2022/03/20 10:02:11;;;;;;;14.13;9.80;;;;;;;10.27;42.45;103655.41;5076177;28;20421;-61
2022/03/20 10:04:55;;;;;;;16.05;10.10;;;;;;;10.33;39.47;103651.25;5073792;28;20036;-61
2022/03/20 10:07:27;;;;;;;16.05;10.32;;;;;;;10.44;42.19;103646.28;5075898;28;20035;-61
2022/03/20 10:10:23;;;;;;;13.40;9.32;;;;;;;10.56;39.41;103644.03;5074370;28;20440;-61
2022/03/20 10:12:53;;;;;;;16.15;10.50;;;;;;;10.63;41.64;103644.25;5074561;28;20452;-61
2022/03/20 10:15:37;;;;;;;15.68;10.63;;;;;;;10.66;38.12;103639.06;5074498;28;20115;-60
2022/03/20 10:18:06;;;;;;;13.25;8.85;;;;;;;10.74;39.99;103645.44;5075613;28;20078;-61
2022/03/20 10:20:44;;;;;;;12.85;8.52;;;;;;;10.78;39.44;103639.44;5075584;28;20135;-61
2022/03/20 10:23:38;;;;;;;12.90;8.63;;;;;;;10.89;35.48;103637.09;5074475;28;20055;-61
2022/03/20 10:26:12;;;;;;;13.25;8.50;;;;;;;10.98;37.12;103627.75;5074822;28;20047;-61
2022/03/20 10:28:43;;;;;;;11.88;7.57;;;;;;;11.05;37.89;103624.44;5075197;28;20103;-61
2022/03/20 10:31:12;;;;;;;13.07;8.23;;;;;;;11.17;38.00;103622.97;5075554;28;20029;-61
2022/03/20 10:33:41;;;;;;;11.75;7.88;;;;;;;11.28;37.68;103621.53;5074263;28;20055;-61
2022/03/20 10:36:18;;;;;;;11.40;7.75;;;;;;;11.35;34.76;103620.84;5074124;28;20532;-61
2022/03/20 10:38:46;;;;;;;11.70;7.25;;;;;;;11.42;36.53;103614.00;5075080;28;20047;-61
2022/03/20 10:41:34;;;;;;;11.10;7.65;;;;;;;11.50;33.77;103615.09;5073838;28;20037;-61
2022/03/20 10:44:02;;;;;;;10.80;7.20;;;;;;;11.57;35.49;103612.66;5075384;28;20472;-62
2022/03/20 10:46:30;;;;;;;10.30;6.38;;;;;;;11.65;33.79;103612.88;5073773;28;20403;-63
2022/03/20 10:49:00;;;;;;;10.70;7.15;;;;;;;11.72;33.90;103603.34;5073735;28;20040;-61
2022/03/20 10:51:37;;;;;;;10.93;6.88;;;;;;;11.75;30.00;103600.78;5074880;28;20158;-63
2022/03/20 10:54:08;;;;;;;9.57;6.45;;;;;;;11.82;33.63;103605.38;5073594;28;20052;-61
2022/03/20 10:56:34;;;;;;;10.25;6.88;;;;;;;11.85;33.44;103600.22;5073585;28;20090;-62
2022/03/20 10:59:10;;;;;;;13.80;7.43;;;;;;;11.80;32.95;103599.16;5057342;28;20024;-61
2022/03/20 11:01:37;;;;;;;11.27;7.65;;;;;;;11.80;33.02;103592.13;5074851;28;20119;-61
2022/03/20 11:04:05;;;;;;;9.43;7.45;;;;;;;11.83;33.29;103592.25;5073421;28;20353;-62
2022/03/20 11:06:31;;;;;;;12.30;8.52;;;;;;;11.79;33.26;103589.47;5057393;28;20028;-62
2022/03/20 11:08:56;;;;;;;12.13;8.27;;;;;;;11.83;32.59;103584.34;5072795;28;20499;-61
2022/03/20 11:11:24;;;;;;;12.60;8.82;;;;;;;11.82;32.88;103581.66;5072710;28;20044;-61
2022/03/20 11:13:52;;;;;;;13.63;8.90;;;;;;;11.91;33.26;103576.63;5069165;28;20040;-61
2022/03/20 11:16:23;;;;;;;12.43;8.25;;;;;;;12.00;33.23;103568.94;5087535;28;20040;-61
2022/03/20 11:18:54;;;;;;;13.95;8.45;;;;;;;12.03;33.20;103565.50;5073659;28;20524;-61
2022/03/20 11:21:30;;;;;;;13.63;9.45;;;;;;;12.07;32.64;103567.34;5072836;28;20032;-64
2022/03/20 11:23:56;;;;;;;13.75;9.02;;;;;;;12.14;33.27;103568.38;5068962;28;20078;-61
2022/03/20 11:26:25;;;;;;;24.65;14.80;;;;;;;12.07;32.58;103557.69;5084029;28;20028;-61
2022/03/20 11:28:57;;;;;;;23.83;12.60;;;;;;;12.05;33.22;103562.03;5070539;28;20035;-61
2022/03/20 11:31:23;;;;;;;13.65;9.82;;;;;;;11.92;33.18;103554.69;5072940;28;20028;-60
2022/03/20 11:33:50;;;;;;;15.30;9.82;;;;;;;11.91;32.87;103542.38;5065504;28;20047;-63
2022/03/20 11:36:17;;;;;;;13.15;8.85;;;;;;;12.05;33.27;103540.97;5068407;28;20075;-61
2022/03/20 11:38:42;;;;;;;12.55;7.75;;;;;;;12.13;33.67;103542.84;5035767;28;20033;-62
2022/03/20 11:41:13;;;;;;;13.32;8.68;;;;;;;12.16;33.57;103537.66;5054222;28;20404;-62
2022/03/20 11:43:41;;;;;;;11.93;8.70;;;;;;;12.24;33.66;103536.06;5086439;28;20037;-61
2022/03/20 11:46:27;;;;;;;13.63;9.07;;;;;;;12.28;32.70;103525.63;5054021;28;20457;-60
2022/03/20 11:49:17;;;;;;;15.90;9.13;;;;;;;12.27;32.30;103530.88;5053707;28;20033;-61
2022/03/20 11:52:08;;;;;;;14.63;8.52;;;;;;;12.30;32.38;103521.28;5069170;28;20025;-62